Loomis, California
Current Conditions -  °F | °C
As of 2:35 AM on Thursday 27 Nov 2014 (Local Time) from KAUN Reporting Station
Clear Clear  
Wind Chill: 79°   Ceiling: Unl
Heat Index: 80°   Visibility: 10mi
Dew Point: 61°   Wind: 0mph
Humidity: 54%   Direction: NA
Pressure: 30.23"   Gusts: NA
Location:  38.82°N, 121.19°W
Report Text: KAUN 271035Z AUTO 00000KT 10SM CLR 26/16 A3023 RMK AO1
Loading
Personal Weather Stations






























Interactive Weather Map New forecast layout! Learn more

10-Day Weather Forecast

Advertisements
Track Severe Weather on mobile